.
WxDataArchive / Data Records for 2013-12-16
2013-12-15 December 2013 2013-12-17

Data Records for Monday, 16 December 2013

Time	Temp	Chill	HIndex	Humid	Dewpt	 Wind 	HiWind	WindDir	Rain 	Barom 
-----	----	-----	------	-----	-----	------	------	-------	-----	----- 
00:00	11.1	11.1	11.1	78	5.6	0	1	248	0.00	30.128 
00:05	11.1	11.1	11.1	78	5.6	0	3	248	0.00	30.128 
00:10	11.1	11.1	11.1	78	5.6	1	3	248	0.00	30.128 
00:15	11.1	11.1	11.1	78	5.6	0	1	248	0.00	30.128 
00:20	10.9	10.9	10.9	78	5.4	0	2	248	0.00	30.128 
00:25	10.9	10.9	10.9	78	5.4	0	2	248	0.00	30.128 
00:30	10.7	10.7	10.7	78	5.2	0	1	248	0.00	30.135 
00:35	10.7	10.7	10.7	78	5.2	0	2	248	0.00	30.135 
00:40	10.7	10.7	10.7	78	5.2	0	2	248	0.00	30.135 
00:45	10.9	10.9	10.9	78	5.4	0	2	248	0.00	30.126 
00:50	10.9	10.9	10.9	78	5.4	0	3	248	0.00	30.126 
00:55	10.9	10.9	10.9	78	5.4	0	2	248	0.00	30.126 
01:00	10.9	10.9	10.9	77	5.1	0	1	248	0.00	30.128 
01:05	10.9	10.9	10.9	77	5.1	0	3	248	0.00	30.128 
01:10	10.9	10.9	10.9	77	5.1	0	2	248	0.00	30.128 
01:15	10.9	10.9	10.9	77	5.1	0	2	248	0.00	30.133 
01:20	10.9	10.9	10.9	77	5.1	0	2	248	0.00	30.133 
01:25	10.9	10.9	10.9	77	5.1	0	2	248	0.00	30.133 
01:30	10.9	10.9	10.9	77	5.1	0	2	248	0.00	30.139 
01:35	10.9	10.9	10.9	77	5.1	0	2	248	0.00	30.139 
01:40	10.9	10.9	10.9	77	5.1	0	1	248	0.00	30.139 
01:45	11.1	11.1	11.1	77	5.3	0	2	248	0.00	30.139 
01:50	11.1	11.1	11.1	77	5.3	0	1	248	0.00	30.139 
01:55	11.1	11.1	11.1	77	5.3	0	1	248	0.00	30.139 
02:00	11.1	11.1	11.1	77	5.3	0	2	248	0.00	30.140 
02:05	11.2	11.2	11.2	77	5.4	0	2	248	0.00	30.140 
02:10	11.2	11.2	11.2	77	5.4	0	3	248	0.00	30.140 
02:15	11.4	11.4	11.4	77	5.6	0	2	248	0.00	30.141 
02:20	11.4	11.4	11.4	77	5.6	0	2	248	0.00	30.141 
02:25	11.4	11.4	11.4	77	5.6	0	1	248	0.00	30.141 
02:30	11.6	11.6	11.6	77	5.8	0	2	248	0.00	30.142 
02:35	11.6	11.6	11.6	77	5.8	0	1	248	0.00	30.142 
02:40	11.6	11.6	11.6	77	5.8	0	2	248	0.00	30.142 
02:45	11.6	11.6	11.6	77	5.8	0	2	248	0.00	30.148 
02:50	11.6	11.6	11.6	76	5.5	0	1	248	0.00	30.148 
02:55	11.6	11.6	11.6	76	5.5	0	1	248	0.00	30.148 
03:00	11.6	11.6	11.6	76	5.5	0	1	248	0.00	30.151 
03:05	11.6	11.6	11.6	76	5.5	0	2	248	0.00	30.151 
03:10	11.6	11.6	11.6	76	5.5	0	1	248	0.00	30.151 
03:15	11.6	11.6	11.6	76	5.5	0	0	---	0.00	30.150 
03:20	11.6	11.6	11.6	76	5.5	0	1	248	0.00	30.150 
03:25	11.7	11.7	11.7	76	5.6	0	1	248	0.00	30.150 
03:30	11.7	11.7	11.7	76	5.6	0	1	248	0.00	30.146 
03:35	11.9	11.9	11.9	76	5.8	0	1	248	0.00	30.146 
03:40	11.9	11.9	11.9	76	5.8	0	1	248	0.00	30.146 
03:45	11.9	11.9	11.9	76	5.8	0	1	248	0.00	30.150 
03:50	12.1	12.1	12.1	76	6.0	0	0	---	0.00	30.150 
03:55	12.1	12.1	12.1	76	6.0	0	1	248	0.00	30.150 
04:00	12.3	12.3	12.3	76	6.2	0	1	248	0.00	30.152 
04:05	12.3	12.3	12.3	76	6.2	0	0	---	0.00	30.152 
04:10	12.3	12.3	12.3	76	6.2	0	1	248	0.00	30.152 
04:15	12.4	12.4	12.4	76	6.3	0	1	248	0.00	30.150 
04:20	12.4	12.4	12.4	76	6.3	0	0	---	0.00	30.150 
04:25	12.4	12.4	12.4	77	6.6	0	1	248	0.00	30.150 
04:30	12.4	12.4	12.4	77	6.6	0	1	248	0.00	30.141 
04:35	12.4	12.4	12.4	77	6.6	0	0	---	0.00	30.141 
04:40	12.4	12.4	12.4	77	6.6	0	1	248	0.00	30.141 
04:45	12.4	12.4	12.4	78	6.9	0	0	---	0.00	30.140 
04:50	12.4	12.4	12.4	78	6.9	0	0	---	0.00	30.140 
04:55	12.4	12.4	12.4	78	6.9	0	1	248	0.00	30.140 
05:00	12.4	12.4	12.4	79	7.2	0	0	---	0.00	30.140 
05:05	12.6	12.6	12.6	79	7.3	0	1	248	0.00	30.140 
05:10	12.6	12.6	12.6	79	7.3	0	1	248	0.00	30.140 
05:15	12.6	12.6	12.6	79	7.3	0	1	248	0.00	30.143 
05:20	12.6	12.6	12.6	80	7.6	0	0	---	0.00	30.143 
05:25	12.8	12.8	12.8	80	7.8	0	0	---	0.00	30.143 
05:30	12.8	12.8	12.8	80	7.8	0	0	---	0.00	30.148 
05:35	12.8	12.8	12.8	80	7.8	0	1	248	0.00	30.148 
05:40	12.8	12.8	12.8	80	7.8	0	1	248	0.00	30.148 
05:45	12.8	12.8	12.8	81	8.1	0	0	---	0.00	30.150 
05:50	12.8	12.8	12.8	81	8.1	0	0	---	0.00	30.150 
05:55	12.8	12.8	12.8	81	8.1	0	0	---	0.00	30.150 
06:00	12.9	12.9	12.9	81	8.2	0	0	---	0.00	30.150 
06:05	12.9	12.9	12.9	81	8.2	0	1	248	0.00	30.150 
06:10	12.9	12.9	12.9	81	8.2	0	1	248	0.00	30.150 
06:15	12.9	12.9	12.9	81	8.2	0	0	---	0.00	30.149 
06:20	12.9	12.9	12.9	81	8.2	0	0	---	0.00	30.149 
06:25	12.9	12.9	12.9	81	8.2	0	0	---	0.00	30.149 
06:30	12.9	12.9	12.9	81	8.2	0	0	---	0.00	30.153 
06:35	12.9	12.9	12.9	82	8.5	0	1	248	0.00	30.153 
06:40	12.9	12.9	12.9	82	8.5	0	0	---	0.00	30.153 
06:45	12.9	12.9	12.9	82	8.5	0	0	---	0.00	30.154 
06:50	13.1	13.1	13.1	82	8.7	0	0	---	0.00	30.154 
06:55	13.1	13.1	13.1	82	8.7	0	0	---	0.00	30.154 
07:00	13.1	13.1	13.1	82	8.7	0	0	---	0.00	30.156 
07:05	13.1	13.1	13.1	82	8.7	0	0	---	0.00	30.156 
07:10	13.1	13.1	13.1	82	8.7	0	0	---	0.00	30.156 
07:15	13.1	13.1	13.1	82	8.7	0	0	---	0.00	30.156 
07:20	12.9	12.9	12.9	82	8.5	0	0	---	0.00	30.156 
07:25	12.8	12.8	12.8	82	8.4	0	0	---	0.00	30.156 
07:30	12.6	12.6	12.6	82	8.2	0	0	---	0.00	30.161 
07:35	12.4	12.4	12.4	82	8.0	0	0	---	0.00	30.161 
07:40	12.3	12.3	12.3	82	7.9	0	0	---	0.00	30.161 
07:45	11.9	11.9	11.9	82	7.5	0	0	---	0.00	30.169 
07:50	11.7	11.7	11.7	82	7.3	0	0	---	0.00	30.169 
07:55	11.6	11.6	11.6	82	7.2	0	0	---	0.00	30.169 
08:00	11.4	11.4	11.4	82	7.0	0	0	---	0.00	30.171 
08:05	11.2	11.2	11.2	82	6.8	0	0	---	0.00	30.171 
08:10	10.9	10.9	10.9	82	6.5	0	0	---	0.00	30.171 
08:15	10.7	10.7	10.7	82	6.3	0	0	---	0.00	30.172 
08:20	10.5	10.5	10.5	83	6.4	0	0	---	0.00	30.172 
08:25	10.4	10.4	10.4	83	6.3	0	0	---	0.00	30.172 
08:30	10.2	10.2	10.2	83	6.1	0	0	---	0.00	30.176 
08:35	10.0	10.0	10.0	83	5.9	0	0	---	0.00	30.176 
08:40	9.9	9.9	9.9	83	5.8	0	0	---	0.00	30.176 
08:45	9.7	9.7	9.7	83	5.6	0	0	---	0.00	30.184 
08:50	9.7	9.7	9.7	83	5.6	0	0	---	0.00	30.184 
08:55	9.9	9.9	9.9	84	6.1	0	0	---	0.00	30.184 
09:00	9.9	9.9	9.9	84	6.1	0	0	---	0.00	30.188 
09:05	10.0	10.0	10.0	84	6.2	0	0	---	0.00	30.188 
09:10	10.4	10.4	10.4	84	6.5	0	0	---	0.00	30.188 
09:15	10.7	10.7	10.7	85	7.1	0	0	---	0.00	30.184 
09:20	11.1	11.1	11.1	85	7.5	0	0	---	0.00	30.184 
09:25	11.6	11.6	11.6	86	8.2	0	0	---	0.00	30.184 
09:30	12.3	12.3	12.3	85	8.7	0	0	---	0.00	30.184 
09:35	12.6	12.6	12.6	85	9.0	0	0	---	0.00	30.184 
09:40	12.9	12.9	12.9	85	9.3	0	1	248	0.00	30.184 
09:45	13.5	13.5	13.5	85	9.8	0	0	---	0.00	30.190 
09:50	13.8	13.8	13.8	85	10.1	0	1	248	0.00	30.190 
09:55	14.1	14.1	14.1	84	10.2	0	1	248	0.00	30.190 
10:00	14.3	14.3	14.3	84	10.4	0	2	248	0.00	30.189 
10:05	14.1	14.1	14.1	82	9.6	0	2	248	0.00	30.189 
10:10	14.3	14.3	14.3	82	9.8	0	0	---	0.00	30.189 
10:15	14.4	14.4	14.4	82	9.9	0	1	248	0.00	30.199 
10:20	14.6	14.6	14.6	82	10.1	0	1	248	0.00	30.199 
10:25	14.6	14.6	14.6	82	10.1	0	1	248	0.00	30.199 
10:30	14.8	14.8	14.8	81	10.0	0	1	248	0.00	30.201 
10:35	14.9	14.9	14.9	81	10.1	0	1	248	0.00	30.201 
10:40	14.9	14.9	14.9	80	9.9	0	2	248	0.00	30.201 
10:45	15.2	15.2	15.2	80	10.2	0	2	248	0.00	30.202 
10:50	15.4	15.4	15.4	79	10.1	1	2	248	0.00	30.202 
10:55	15.7	15.7	15.7	79	10.4	1	3	248	0.00	30.202 
11:00	16.1	16.1	16.1	78	10.5	1	3	112	0.00	30.202 
11:05	16.5	16.5	16.5	78	10.9	0	2	112	0.00	30.202 
11:10	16.9	16.9	16.9	77	11.0	1	3	112	0.00	30.202 
11:15	16.7	16.7	16.7	77	10.8	1	3	112	0.00	30.197 
11:20	16.7	16.7	16.7	77	10.8	1	3	112	0.00	30.197 
11:25	16.9	16.9	16.9	77	11.0	1	4	112	0.00	30.197 
11:30	17.0	17.0	17.0	77	11.1	1	3	112	0.00	30.185 
11:35	17.3	17.3	17.3	77	11.3	1	2	112	0.00	30.185 
11:40	17.7	17.7	17.7	77	11.7	0	2	112	0.00	30.185 
11:45	17.7	17.7	17.7	76	11.4	1	3	112	0.00	30.181 
11:50	17.5	17.5	17.5	76	11.3	1	4	112	0.00	30.181 
11:55	17.7	17.7	17.7	77	11.7	0	3	112	0.00	30.181 
12:00	18.0	18.0	18.0	76	11.7	0	2	112	0.00	30.168 
12:05	18.3	18.3	18.3	75	11.7	0	1	112	0.00	30.168 
12:10	18.3	18.3	18.3	75	11.7	1	3	112	0.00	30.168 
12:15	18.1	18.1	18.1	75	11.5	1	5	112	0.00	30.163 
12:20	18.1	18.1	18.1	75	11.5	1	3	112	0.00	30.163 
12:25	17.8	17.8	17.8	75	11.2	1	5	112	0.00	30.163 
12:30	17.7	17.7	17.7	75	11.1	2	5	90	0.00	30.148 
12:35	17.7	17.7	17.7	76	11.4	2	4	90	0.00	30.148 
12:40	17.8	17.8	17.8	76	11.5	2	4	68	0.00	30.148 
12:45	17.8	17.8	17.8	76	11.5	2	4	68	0.00	30.141 
12:50	18.0	18.0	18.0	76	11.7	1	4	68	0.00	30.141 
12:55	18.1	18.1	18.1	76	11.8	1	4	68	0.00	30.141 
13:00	18.3	18.3	18.3	75	11.7	1	3	90	0.00	30.146 
13:05	18.3	18.3	18.3	74	11.4	2	5	90	0.00	30.146 
13:10	18.3	18.3	18.3	74	11.4	2	5	90	0.00	30.146 
13:15	18.1	18.1	18.1	74	11.2	2	4	90	0.00	30.143 
13:20	18.3	18.3	18.3	75	11.7	1	4	90	0.00	30.143 
13:25	18.4	18.4	18.4	75	11.8	1	3	90	0.00	30.143 
13:30	18.6	18.6	18.6	75	12.0	1	3	90	0.00	30.146 
13:35	18.8	18.8	18.8	74	11.9	1	3	90	0.00	30.146 
13:40	18.9	18.9	18.9	73	11.7	1	3	90	0.00	30.146 
13:45	18.9	18.9	18.9	73	11.7	1	4	135	0.00	30.128 
13:50	18.9	18.9	18.9	73	11.7	1	4	90	0.00	30.128 
13:55	18.9	18.9	18.9	73	11.7	2	4	90	0.00	30.128 
14:00	18.9	18.9	18.9	72	11.4	2	4	90	0.00	30.119 
14:05	18.9	18.9	18.9	72	11.4	2	4	90	0.00	30.119 
14:10	18.8	18.8	18.8	72	11.3	2	5	90	0.00	30.119 
14:15	18.6	18.6	18.6	73	11.4	2	5	90	0.00	30.119 
14:20	18.6	18.6	18.6	72	11.1	2	5	90	0.00	30.119 
14:25	18.6	18.6	18.6	72	11.1	1	4	90	0.00	30.119 
14:30	18.8	18.8	18.8	73	11.6	1	4	90	0.00	30.113 
14:35	18.8	18.8	18.8	73	11.6	1	4	90	0.00	30.113 
14:40	18.9	18.9	18.9	73	11.7	0	3	90	0.00	30.113 
14:45	18.9	18.9	18.9	72	11.4	1	3	90	0.00	30.111 
14:50	18.8	18.8	18.8	71	11.0	2	4	90	0.00	30.111 
14:55	18.6	18.6	18.6	72	11.1	2	4	90	0.00	30.111 
15:00	18.6	18.6	18.6	73	11.4	2	4	90	0.00	30.109 
15:05	18.8	18.8	18.8	73	11.6	1	4	90	0.00	30.109 
15:10	18.6	18.6	18.6	72	11.1	2	4	90	0.00	30.109 
15:15	18.4	18.4	18.4	73	11.2	2	4	90	0.00	30.105 
15:20	18.4	18.4	18.4	73	11.2	2	5	90	0.00	30.105 
15:25	18.4	18.4	18.4	73	11.2	1	3	90	0.00	30.105 
15:30	18.6	18.6	18.6	73	11.4	2	6	90	0.00	30.098 
15:35	18.6	18.6	18.6	73	11.4	2	5	112	0.00	30.098 
15:40	18.4	18.4	18.4	74	11.5	2	5	112	0.00	30.098 
15:45	18.3	18.3	18.3	75	11.7	1	5	90	0.00	30.091 
15:50	18.4	18.4	18.4	75	11.8	1	3	90	0.00	30.091 
15:55	18.4	18.4	18.4	75	11.8	2	4	90	0.00	30.091 
16:00	18.3	18.3	18.3	75	11.7	2	4	90	0.00	30.089 
16:05	18.3	18.3	18.3	75	11.7	2	4	90	0.00	30.089 
16:10	18.3	18.3	18.3	75	11.7	2	5	112	0.00	30.089 
16:15	18.4	18.4	18.4	74	11.5	2	6	112	0.00	30.095 
16:20	18.4	18.4	18.4	74	11.5	2	5	112	0.00	30.095 
16:25	18.3	18.3	18.3	74	11.4	2	6	90	0.00	30.095 
16:30	18.4	18.4	18.4	75	11.8	1	6	90	0.00	30.089 
16:35	18.4	18.4	18.4	75	11.8	3	6	112	0.00	30.089 
16:40	18.3	18.3	18.3	75	11.7	2	5	112	0.00	30.089 
16:45	18.3	18.3	18.3	76	12.0	1	4	90	0.00	30.092 
16:50	18.4	18.4	18.4	75	11.8	1	4	90	0.00	30.092 
16:55	18.4	18.4	18.4	76	12.1	1	4	90	0.00	30.092 
17:00	18.4	18.4	18.4	75	11.8	2	5	90	0.00	30.089 
17:05	18.4	18.4	18.4	75	11.8	1	3	90	0.00	30.089 
17:10	18.3	18.3	18.3	75	11.7	2	5	90	0.00	30.089 
17:15	18.3	18.3	18.3	75	11.7	2	6	90	0.00	30.088 
17:20	18.3	18.3	18.3	75	11.7	1	5	112	0.00	30.088 
17:25	18.4	18.4	18.4	75	11.8	0	2	112	0.00	30.088 
17:30	18.4	18.4	18.4	75	11.8	1	3	112	0.00	30.088 
17:35	18.4	18.4	18.4	75	11.8	1	4	112	0.00	30.088 
17:40	18.4	18.4	18.4	75	11.8	0	1	112	0.00	30.088 
17:45	18.4	18.4	18.4	76	12.1	0	2	112	0.00	30.087 
17:50	18.4	18.4	18.4	75	11.8	1	3	112	0.00	30.087 
17:55	18.4	18.4	18.4	75	11.8	1	3	112	0.00	30.087 
18:00	18.3	18.3	18.3	75	11.7	1	4	112	0.00	30.088 
18:05	18.3	18.3	18.3	75	11.7	1	3	112	0.00	30.088 
18:10	18.3	18.3	18.3	76	12.0	1	4	112	0.00	30.088 
18:15	18.3	18.3	18.3	76	12.0	0	2	112	0.00	30.090 
18:20	18.4	18.4	18.4	76	12.1	1	3	112	0.00	30.090 
18:25	18.3	18.3	18.3	76	12.0	1	3	112	0.00	30.090 
18:30	18.3	18.3	18.3	77	12.3	1	4	112	0.00	30.087 
18:35	18.3	18.3	18.3	78	12.6	1	3	112	0.00	30.087 
18:40	18.3	18.3	18.3	79	12.9	1	3	112	0.00	30.087 
18:45	18.1	18.1	18.1	80	13.0	1	3	112	0.00	30.087 
18:50	18.1	18.1	18.1	80	13.0	1	4	112	0.00	30.087 
18:55	18.1	18.1	18.1	81	13.3	1	3	112	0.00	30.087 
19:00	18.0	18.0	18.0	81	13.2	1	3	112	0.00	30.088 
19:05	18.0	18.0	18.0	82	13.5	1	3	112	0.00	30.088 
19:10	18.0	18.0	18.0	83	13.7	2	4	90	0.00	30.088 
19:15	17.8	17.8	17.8	83	13.5	1	3	90	0.00	30.086 
19:20	17.8	17.8	17.8	84	13.8	1	3	90	0.00	30.086 
19:25	17.8	17.8	17.8	84	13.8	1	3	90	0.00	30.086 
19:30	17.8	17.8	17.8	85	14.1	1	3	90	0.00	30.089 
19:35	17.8	17.8	17.8	85	14.1	1	4	90	0.00	30.089 
19:40	17.8	17.8	17.8	85	14.1	1	4	90	0.00	30.089 
19:45	17.8	17.8	17.8	86	14.3	1	2	90	0.00	30.080 
19:50	17.8	17.8	17.8	86	14.3	1	4	90	0.00	30.080 
19:55	17.8	17.8	17.8	86	14.3	0	2	90	0.00	30.080 
20:00	17.8	17.8	17.8	87	14.6	1	5	90	0.00	30.072 
20:05	18.0	18.0	18.0	87	14.8	1	5	90	0.00	30.072 
20:10	18.0	18.0	18.0	87	14.8	1	3	90	0.00	30.072 
20:15	18.0	18.0	18.0	87	14.8	1	3	90	0.00	30.064 
20:20	17.8	17.8	17.8	87	14.6	1	3	90	0.00	30.064 
20:25	17.8	17.8	17.8	87	14.6	1	3	90	0.00	30.064 
20:30	17.8	17.8	17.8	87	14.6	1	3	90	0.00	30.061 
20:35	17.7	17.7	17.7	87	14.5	1	4	90	0.00	30.061 
20:40	17.7	17.7	17.7	87	14.5	1	3	90	0.00	30.061 
20:45	17.7	17.7	17.7	87	14.5	1	4	90	0.00	30.057 
20:50	17.7	17.7	17.7	87	14.5	0	3	90	0.00	30.057 
20:55	17.7	17.7	17.7	87	14.5	0	2	90	0.00	30.057 
21:00	17.7	17.7	17.7	87	14.5	0	1	90	0.00	30.060 
21:05	17.7	17.7	17.7	87	14.5	0	2	90	0.00	30.060 
21:10	17.7	17.7	17.7	87	14.5	0	2	90	0.00	30.060 
21:15	17.7	17.7	17.7	87	14.5	0	1	90	0.00	30.051 
21:20	17.7	17.7	17.7	87	14.5	0	2	90	0.00	30.051 
21:25	17.7	17.7	17.7	87	14.5	0	0	---	0.00	30.051 
21:30	17.7	17.7	17.7	87	14.5	0	1	90	0.00	30.049 
21:35	17.7	17.7	17.7	87	14.5	0	1	90	0.00	30.049 
21:40	17.7	17.7	17.7	87	14.5	0	2	90	0.00	30.049 
21:45	17.7	17.7	17.7	87	14.5	1	2	90	0.00	30.042 
21:50	17.5	17.5	17.5	87	14.3	0	1	90	0.00	30.042 
21:55	17.5	17.5	17.5	87	14.3	0	1	90	0.00	30.042 
22:00	17.5	17.5	17.5	87	14.3	0	2	90	0.00	30.042 
22:05	17.5	17.5	17.5	87	14.3	0	1	90	0.00	30.042 
22:10	17.7	17.7	17.7	87	14.5	0	2	90	0.00	30.042 
22:15	17.7	17.7	17.7	87	14.5	0	1	90	0.00	30.041 
22:20	17.7	17.7	17.7	87	14.5	0	1	90	0.00	30.041 
22:25	17.7	17.7	17.7	87	14.5	0	1	90	0.00	30.041 
22:30	17.7	17.7	17.7	88	14.8	0	1	90	0.00	30.036 
22:35	17.7	17.7	17.7	88	14.8	0	1	90	0.00	30.036 
22:40	17.7	17.7	17.7	88	14.8	0	1	90	0.00	30.036 
22:45	17.7	17.7	17.7	88	14.8	0	1	90	0.00	30.040 
22:50	17.7	17.7	17.7	88	14.8	0	1	90	0.00	30.040 
22:55	17.7	17.7	17.7	88	14.8	0	1	90	0.00	30.040 
23:00	17.7	17.7	17.7	88	14.8	0	0	---	0.00	30.038 
23:05	17.7	17.7	17.7	89	15.0	0	0	---	0.00	30.038 
23:10	17.8	17.8	17.8	89	15.1	0	0	---	0.00	30.038 
23:15	17.8	17.8	17.8	89	15.1	0	0	---	0.00	30.034 
23:20	17.8	17.8	17.8	89	15.1	0	0	---	0.00	30.034 
23:25	17.8	17.8	17.8	89	15.1	0	0	---	0.00	30.034 
23:30	17.8	17.8	17.8	89	15.1	0	0	---	0.00	30.028 
23:35	17.8	17.8	17.8	89	15.1	0	0	---	0.00	30.028 
23:40	18.0	18.0	18.0	89	15.3	0	0	---	0.00	30.028 
23:45	18.0	18.0	18.0	89	15.3	0	0	---	0.00	30.028 
23:50	18.0	18.0	18.0	89	15.3	0	0	---	0.00	30.028 
23:55	18.0	18.0	18.0	89	15.3	0	0	---	0.00	30.028 

CoCoRaHS
IN-AL-39
A2 Web Hosting
Creative Commons License
GoDaddy
search engine by freefind advanced

loaded 2018-11-12 20:01:48 • last modified 2010-11-18 10:43:29
Privacy PolicyDisclaimer
• wx.awcolley.com is powered by PmWiki v.2002016 •
• all content (unless otherwise noted) © 2018 A W Colley